createdAt,value
2023-05-17T02:05:17.912Z,29.80
2023-05-17T02:31:09.863Z,28.97
2023-05-17T03:01:35.107Z,24.93
2023-05-17T03:26:52.034Z,24.83
2023-05-17T03:47:19.199Z,23.40
2023-05-17T04:12:14.631Z,24.20
2023-05-17T04:32:28.977Z,21.93
2023-05-17T05:08:24.822Z,19.73
2023-05-17T05:28:44.804Z,16.67
2023-05-17T05:33:04.613Z,19.00
2023-05-17T06:18:56.852Z,10.50
2023-05-17T06:39:05.221Z,11.10
2023-05-17T07:04:31.937Z,11.13
2023-05-17T07:30:24.021Z,9.60
2023-05-17T08:00:21.019Z,10.07
2023-05-17T08:26:06.944Z,10.30
2023-05-17T08:46:21.896Z,9.87
2023-05-17T09:37:17.965Z,8.87
2023-05-17T10:02:19.316Z,8.83
2023-05-17T10:32:27.289Z,15.27
2023-05-17T10:53:15.102Z,13.63
2023-05-17T11:13:35.228Z,16.53
2023-05-17T11:33:58.954Z,14.40
2023-05-17T12:04:27.522Z,13.43
2023-05-17T12:24:23.531Z,11.70
2023-05-17T13:20:29.087Z,12.40
2023-05-17T13:24:56.035Z,17.03
2023-05-17T13:50:52.552Z,12.13
2023-05-17T14:31:33.396Z,13.57
2023-05-17T14:56:34.512Z,15.23
2023-05-17T15:17:05.825Z,20.30
2023-05-17T16:57:53.288Z,12.47
2023-05-17T17:18:47.524Z,11.87
2023-05-17T17:39:08.447Z,11.27
2023-05-17T18:04:04.934Z,12.53
2023-05-17T18:24:05.072Z,11.10
2023-05-17T18:45:02.457Z,9.97
2023-05-17T20:11:14.951Z,13.57
2023-05-17T20:36:12.011Z,15.00
2023-05-17T20:56:40.835Z,11.80
2023-05-17T21:41:52.333Z,14.60
2023-05-17T22:07:39.094Z,11.93
2023-05-17T22:43:03.878Z,15.53
2023-05-17T23:23:55.699Z,7.67
2023-05-17T23:53:42.351Z,12.27
